sensor_id;sensor_type;location;lat;lon;timestamp;temperature;humidity
25024;DHT22;13033;50.936;5.334;2023-05-19T00:00:56;12.10;99.90
25024;DHT22;13033;50.936;5.334;2023-05-19T00:03:22;12.00;99.90
25024;DHT22;13033;50.936;5.334;2023-05-19T00:05:49;11.80;99.90
25024;DHT22;13033;50.936;5.334;2023-05-19T00:08:18;11.80;1.00
25024;DHT22;13033;50.936;5.334;2023-05-19T00:10:44;11.80;1.00
25024;DHT22;13033;50.936;5.334;2023-05-19T00:13:10;11.90;1.00
25024;DHT22;13033;50.936;5.334;2023-05-19T00:15:36;12.00;99.90
25024;DHT22;13033;50.936;5.334;2023-05-19T00:18:01;12.20;99.90
25024;DHT22;13033;50.936;5.334;2023-05-19T00:20:27;12.10;99.90
25024;DHT22;13033;50.936;5.334;2023-05-19T00:22:53;12.10;99.90
25024;DHT22;13033;50.936;5.334;2023-05-19T00:25:18;12.10;99.90
25024;DHT22;13033;50.936;5.334;2023-05-19T00:27:44;12.00;99.90
25024;DHT22;13033;50.936;5.334;2023-05-19T00:30:10;12.00;99.90
25024;DHT22;13033;50.936;5.334;2023-05-19T00:32:36;12.10;99.90
25024;DHT22;13033;50.936;5.334;2023-05-19T00:35:01;12.00;99.90
25024;DHT22;13033;50.936;5.334;2023-05-19T00:37:27;12.10;99.90
25024;DHT22;13033;50.936;5.334;2023-05-19T00:39:52;12.10;99.90
25024;DHT22;13033;50.936;5.334;2023-05-19T00:42:19;12.00;99.90
25024;DHT22;13033;50.936;5.334;2023-05-19T00:44:45;12.00;99.90
25024;DHT22;13033;50.936;5.334;2023-05-19T00:47:11;12.00;99.90
25024;DHT22;13033;50.936;5.334;2023-05-19T00:49:36;12.00;99.90
25024;DHT22;13033;50.936;5.334;2023-05-19T00:52:05;11.90;1.00
25024;DHT22;13033;50.936;5.334;2023-05-19T00:54:32;12.00;1.00
25024;DHT22;13033;50.936;5.334;2023-05-19T00:56:58;12.00;1.00
25024;DHT22;13033;50.936;5.334;2023-05-19T00:59:24;12.00;1.00
25024;DHT22;13033;50.936;5.334;2023-05-19T01:01:51;12.00;1.00
25024;DHT22;13033;50.936;5.334;2023-05-19T01:04:20;11.90;1.00
25024;DHT22;13033;50.936;5.334;2023-05-19T01:06:49;12.10;1.00
25024;DHT22;13033;50.936;5.334;2023-05-19T01:09:21;12.00;1.00
25024;DHT22;13033;50.936;5.334;2023-05-19T01:11:50;11.90;1.00
25024;DHT22;13033;50.936;5.334;2023-05-19T01:14:16;12.00;1.00
25024;DHT22;13033;50.936;5.334;2023-05-19T01:16:47;11.90;1.00
25024;DHT22;13033;50.936;5.334;2023-05-19T01:30:36;11.70;99.90
25024;DHT22;13033;50.936;5.334;2023-05-19T01:33:07;11.70;99.90
25024;DHT22;13033;50.936;5.334;2023-05-19T01:35:35;11.50;99.90
25024;DHT22;13033;50.936;5.334;2023-05-19T01:38:02;11.50;99.90
25024;DHT22;13033;50.936;5.334;2023-05-19T01:40:29;11.50;99.90
25024;DHT22;13033;50.936;5.334;2023-05-19T01:42:57;11.60;99.90
25024;DHT22;13033;50.936;5.334;2023-05-19T01:45:24;11.60;99.90
25024;DHT22;13033;50.936;5.334;2023-05-19T01:47:55;11.60;99.90
25024;DHT22;13033;50.936;5.334;2023-05-19T01:50:22;11.60;99.90
25024;DHT22;13033;50.936;5.334;2023-05-19T01:52:47;11.70;99.90
25024;DHT22;13033;50.936;5.334;2023-05-19T01:55:13;11.70;99.90
25024;DHT22;13033;50.936;5.334;2023-05-19T01:57:51;11.70;99.90
25024;DHT22;13033;50.936;5.334;2023-05-19T02:05:54;11.40;99.90
25024;DHT22;13033;50.936;5.334;2023-05-19T02:08:32;11.30;99.90
25024;DHT22;13033;50.936;5.334;2023-05-19T02:11:09;11.30;99.90
25024;DHT22;13033;50.936;5.334;2023-05-19T02:13:38;11.30;99.90
25024;DHT22;13033;50.936;5.334;2023-05-19T02:16:07;11.30;99.90
25024;DHT22;13033;50.936;5.334;2023-05-19T02:18:35;11.30;99.90
25024;DHT22;13033;50.936;5.334;2023-05-19T02:21:01;11.10;99.90
25024;DHT22;13033;50.936;5.334;2023-05-19T02:23:27;11.10;99.90
25024;DHT22;13033;50.936;5.334;2023-05-19T02:25:52;11.10;99.90
25024;DHT22;13033;50.936;5.334;2023-05-19T02:28:18;11.20;99.90
25024;DHT22;13033;50.936;5.334;2023-05-19T02:30:44;11.20;99.90
25024;DHT22;13033;50.936;5.334;2023-05-19T02:33:09;11.20;99.90
25024;DHT22;13033;50.936;5.334;2023-05-19T02:35:36;11.20;99.90
25024;DHT22;13033;50.936;5.334;2023-05-19T02:38:01;11.10;1.00
25024;DHT22;13033;50.936;5.334;2023-05-19T02:40:27;11.00;1.00
25024;DHT22;13033;50.936;5.334;2023-05-19T02:42:53;10.90;1.00
25024;DHT22;13033;50.936;5.334;2023-05-19T02:45:18;11.00;1.00
25024;DHT22;13033;50.936;5.334;2023-05-19T02:47:44;10.90;1.00
25024;DHT22;13033;50.936;5.334;2023-05-19T02:50:10;10.80;1.00
25024;DHT22;13033;50.936;5.334;2023-05-19T02:52:35;10.80;1.00
25024;DHT22;13033;50.936;5.334;2023-05-19T02:55:01;10.80;1.00
25024;DHT22;13033;50.936;5.334;2023-05-19T02:57:28;10.90;1.00
25024;DHT22;13033;50.936;5.334;2023-05-19T02:59:55;10.90;1.00
25024;DHT22;13033;50.936;5.334;2023-05-19T03:02:21;10.80;1.00
25024;DHT22;13033;50.936;5.334;2023-05-19T03:04:47;10.80;1.00
25024;DHT22;13033;50.936;5.334;2023-05-19T03:07:12;10.80;1.00
25024;DHT22;13033;50.936;5.334;2023-05-19T03:09:38;10.80;1.00
25024;DHT22;13033;50.936;5.334;2023-05-19T03:12:04;10.80;1.00
25024;DHT22;13033;50.936;5.334;2023-05-19T03:14:32;10.80;1.00
25024;DHT22;13033;50.936;5.334;2023-05-19T03:16:58;10.80;1.00
25024;DHT22;13033;50.936;5.334;2023-05-19T03:19:24;10.70;1.00
25024;DHT22;13033;50.936;5.334;2023-05-19T03:21:50;10.70;1.00
25024;DHT22;13033;50.936;5.334;2023-05-19T03:24:16;10.70;1.00
25024;DHT22;13033;50.936;5.334;2023-05-19T03:26:42;10.70;1.00
25024;DHT22;13033;50.936;5.334;2023-05-19T03:29:08;10.60;1.00
25024;DHT22;13033;50.936;5.334;2023-05-19T03:31:33;10.50;1.00
25024;DHT22;13033;50.936;5.334;2023-05-19T03:33:59;10.40;1.00
25024;DHT22;13033;50.936;5.334;2023-05-19T03:36:25;10.40;1.00
25024;DHT22;13033;50.936;5.334;2023-05-19T03:38:56;10.40;1.00
25024;DHT22;13033;50.936;5.334;2023-05-19T03:41:22;10.40;1.00
25024;DHT22;13033;50.936;5.334;2023-05-19T03:43:48;10.30;1.00
25024;DHT22;13033;50.936;5.334;2023-05-19T03:46:13;10.20;1.00
25024;DHT22;13033;50.936;5.334;2023-05-19T03:48:39;10.30;1.00
25024;DHT22;13033;50.936;5.334;2023-05-19T03:51:05;10.30;1.00
25024;DHT22;13033;50.936;5.334;2023-05-19T03:53:31;10.10;1.00
25024;DHT22;13033;50.936;5.334;2023-05-19T03:55:57;9.90;1.00
25024;DHT22;13033;50.936;5.334;2023-05-19T03:58:23;9.90;1.00
25024;DHT22;13033;50.936;5.334;2023-05-19T04:00:50;10.00;1.00
25024;DHT22;13033;50.936;5.334;2023-05-19T04:03:15;9.80;1.00
25024;DHT22;13033;50.936;5.334;2023-05-19T04:05:41;9.90;1.00
25024;DHT22;13033;50.936;5.334;2023-05-19T04:08:06;9.80;1.00
25024;DHT22;13033;50.936;5.334;2023-05-19T04:10:32;9.80;1.00
25024;DHT22;13033;50.936;5.334;2023-05-19T04:12:58;9.90;1.00
25024;DHT22;13033;50.936;5.334;2023-05-19T04:15:23;9.90;1.00
25024;DHT22;13033;50.936;5.334;2023-05-19T04:17:49;10.10;1.00
25024;DHT22;13033;50.936;5.334;2023-05-19T04:20:15;10.20;1.00
25024;DHT22;13033;50.936;5.334;2023-05-19T04:22:40;10.30;1.00
25024;DHT22;13033;50.936;5.334;2023-05-19T04:25:06;10.30;1.00
25024;DHT22;13033;50.936;5.334;2023-05-19T04:27:33;10.20;1.00
25024;DHT22;13033;50.936;5.334;2023-05-19T04:30:03;10.10;1.00
25024;DHT22;13033;50.936;5.334;2023-05-19T04:32:29;10.10;1.00
25024;DHT22;13033;50.936;5.334;2023-05-19T04:34:55;10.00;1.00
25024;DHT22;13033;50.936;5.334;2023-05-19T04:37:26;10.20;1.00
25024;DHT22;13033;50.936;5.334;2023-05-19T04:39:51;10.20;1.00
25024;DHT22;13033;50.936;5.334;2023-05-19T04:42:17;10.30;1.00
25024;DHT22;13033;50.936;5.334;2023-05-19T04:44:46;10.40;1.00
25024;DHT22;13033;50.936;5.334;2023-05-19T04:47:13;10.40;1.00
25024;DHT22;13033;50.936;5.334;2023-05-19T04:49:39;10.50;1.00
25024;DHT22;13033;50.936;5.334;2023-05-19T04:52:06;10.50;1.00
25024;DHT22;13033;50.936;5.334;2023-05-19T04:54:34;10.60;1.00
25024;DHT22;13033;50.936;5.334;2023-05-19T04:57:00;10.60;1.00
25024;DHT22;13033;50.936;5.334;2023-05-19T04:59:25;10.60;1.00
25024;DHT22;13033;50.936;5.334;2023-05-19T05:01:51;10.70;1.00
25024;DHT22;13033;50.936;5.334;2023-05-19T05:04:16;10.80;1.00
25024;DHT22;13033;50.936;5.334;2023-05-19T05:06:42;10.80;1.00
25024;DHT22;13033;50.936;5.334;2023-05-19T05:09:16;10.90;1.00
25024;DHT22;13033;50.936;5.334;2023-05-19T05:11:42;11.00;1.00
25024;DHT22;13033;50.936;5.334;2023-05-19T05:14:09;11.10;1.00
25024;DHT22;13033;50.936;5.334;2023-05-19T05:16:35;11.20;1.00
25024;DHT22;13033;50.936;5.334;2023-05-19T05:19:01;11.10;1.00
25024;DHT22;13033;50.936;5.334;2023-05-19T05:21:27;11.20;1.00
25024;DHT22;13033;50.936;5.334;2023-05-19T05:23:53;11.30;1.00
25024;DHT22;13033;50.936;5.334;2023-05-19T05:26:20;11.30;1.00
25024;DHT22;13033;50.936;5.334;2023-05-19T05:28:49;11.30;1.00
25024;DHT22;13033;50.936;5.334;2023-05-19T05:31:15;11.20;1.00
25024;DHT22;13033;50.936;5.334;2023-05-19T05:33:41;11.20;1.00
25024;DHT22;13033;50.936;5.334;2023-05-19T05:36:08;11.10;1.00
25024;DHT22;13033;50.936;5.334;2023-05-19T05:38:33;10.90;1.00
25024;DHT22;13033;50.936;5.334;2023-05-19T05:40:59;11.00;1.00
25024;DHT22;13033;50.936;5.334;2023-05-19T05:43:27;11.20;1.00
25024;DHT22;13033;50.936;5.334;2023-05-19T05:45:52;11.40;1.00
25024;DHT22;13033;50.936;5.334;2023-05-19T05:48:18;11.50;1.00
25024;DHT22;13033;50.936;5.334;2023-05-19T05:50:44;11.70;1.00
25024;DHT22;13033;50.936;5.334;2023-05-19T05:53:18;11.80;1.00
25024;DHT22;13033;50.936;5.334;2023-05-19T05:55:45;11.80;1.00
25024;DHT22;13033;50.936;5.334;2023-05-19T05:58:11;12.00;1.00
25024;DHT22;13033;50.936;5.334;2023-05-19T06:00:39;12.10;1.00
25024;DHT22;13033;50.936;5.334;2023-05-19T06:03:08;12.10;1.00
25024;DHT22;13033;50.936;5.334;2023-05-19T06:05:34;12.30;1.00
25024;DHT22;13033;50.936;5.334;2023-05-19T06:08:00;12.40;1.00
25024;DHT22;13033;50.936;5.334;2023-05-19T06:10:27;12.60;1.00
25024;DHT22;13033;50.936;5.334;2023-05-19T06:12:53;12.60;1.00
25024;DHT22;13033;50.936;5.334;2023-05-19T06:15:20;12.50;1.00
25024;DHT22;13033;50.936;5.334;2023-05-19T06:17:45;12.50;1.00
25024;DHT22;13033;50.936;5.334;2023-05-19T06:20:12;12.60;1.00
25024;DHT22;13033;50.936;5.334;2023-05-19T06:22:37;12.60;1.00
25024;DHT22;13033;50.936;5.334;2023-05-19T06:25:04;12.80;99.90
25024;DHT22;13033;50.936;5.334;2023-05-19T06:27:30;13.10;99.90
25024;DHT22;13033;50.936;5.334;2023-05-19T06:29:56;13.40;99.90
25024;DHT22;13033;50.936;5.334;2023-05-19T06:32:21;13.40;99.90
25024;DHT22;13033;50.936;5.334;2023-05-19T06:34:47;13.60;99.90
25024;DHT22;13033;50.936;5.334;2023-05-19T06:37:22;13.70;99.90
25024;DHT22;13033;50.936;5.334;2023-05-19T06:39:51;13.90;99.90
25024;DHT22;13033;50.936;5.334;2023-05-19T06:42:18;14.10;99.90
25024;DHT22;13033;50.936;5.334;2023-05-19T06:44:50;14.10;99.90
25024;DHT22;13033;50.936;5.334;2023-05-19T06:47:17;14.30;99.90
25024;DHT22;13033;50.936;5.334;2023-05-19T06:49:46;14.40;99.90
25024;DHT22;13033;50.936;5.334;2023-05-19T06:52:15;14.40;99.90
25024;DHT22;13033;50.936;5.334;2023-05-19T06:54:41;14.50;99.90
25024;DHT22;13033;50.936;5.334;2023-05-19T06:57:06;14.60;99.90
25024;DHT22;13033;50.936;5.334;2023-05-19T06:59:32;14.70;99.90
25024;DHT22;13033;50.936;5.334;2023-05-19T07:01:58;14.90;99.90
25024;DHT22;13033;50.936;5.334;2023-05-19T07:04:23;14.90;27.50
25024;DHT22;13033;50.936;5.334;2023-05-19T07:06:49;15.20;1.00
25024;DHT22;13033;50.936;5.334;2023-05-19T07:09:15;15.10;1.00
25024;DHT22;13033;50.936;5.334;2023-05-19T07:11:40;15.20;1.00
25024;DHT22;13033;50.936;5.334;2023-05-19T07:14:06;15.40;1.00
25024;DHT22;13033;50.936;5.334;2023-05-19T07:16:31;15.60;1.00
25024;DHT22;13033;50.936;5.334;2023-05-19T07:18:57;15.50;99.90
25024;DHT22;13033;50.936;5.334;2023-05-19T07:21:23;15.50;99.90
25024;DHT22;13033;50.936;5.334;2023-05-19T07:23:48;15.90;99.90
25024;DHT22;13033;50.936;5.334;2023-05-19T07:26:14;15.80;99.90
25024;DHT22;13033;50.936;5.334;2023-05-19T07:28:40;15.80;99.90
25024;DHT22;13033;50.936;5.334;2023-05-19T07:31:07;15.90;99.90
25024;DHT22;13033;50.936;5.334;2023-05-19T07:33:32;16.20;99.90
25024;DHT22;13033;50.936;5.334;2023-05-19T07:35:58;16.30;99.90
25024;DHT22;13033;50.936;5.334;2023-05-19T07:38:23;16.20;99.90
25024;DHT22;13033;50.936;5.334;2023-05-19T07:40:49;16.10;99.90
25024;DHT22;13033;50.936;5.334;2023-05-19T07:43:15;16.00;99.90
25024;DHT22;13033;50.936;5.334;2023-05-19T07:45:40;15.90;99.90
25024;DHT22;13033;50.936;5.334;2023-05-19T07:48:06;16.10;99.90
25024;DHT22;13033;50.936;5.334;2023-05-19T07:50:32;16.30;6.50
25024;DHT22;13033;50.936;5.334;2023-05-19T07:52:58;16.70;1.00
25024;DHT22;13033;50.936;5.334;2023-05-19T07:55:23;16.70;99.90
25024;DHT22;13033;50.936;5.334;2023-05-19T07:57:49;16.50;99.90
25024;DHT22;13033;50.936;5.334;2023-05-19T08:00:15;16.50;1.00
25024;DHT22;13033;50.936;5.334;2023-05-19T08:02:43;16.70;1.00
25024;DHT22;13033;50.936;5.334;2023-05-19T08:05:09;16.70;99.90
25024;DHT22;13033;50.936;5.334;2023-05-19T08:07:36;16.60;99.90
25024;DHT22;13033;50.936;5.334;2023-05-19T08:10:02;16.80;99.90
25024;DHT22;13033;50.936;5.334;2023-05-19T08:12:28;16.90;99.90
25024;DHT22;13033;50.936;5.334;2023-05-19T08:14:53;16.90;99.90
25024;DHT22;13033;50.936;5.334;2023-05-19T08:17:19;17.00;16.50
25024;DHT22;13033;50.936;5.334;2023-05-19T08:19:45;17.20;99.90
25024;DHT22;13033;50.936;5.334;2023-05-19T08:22:10;17.40;99.90
25024;DHT22;13033;50.936;5.334;2023-05-19T08:24:36;17.10;99.90
25024;DHT22;13033;50.936;5.334;2023-05-19T08:27:03;17.20;99.90
25024;DHT22;13033;50.936;5.334;2023-05-19T08:29:29;17.20;99.90
25024;DHT22;13033;50.936;5.334;2023-05-19T08:31:56;17.20;99.90
25024;DHT22;13033;50.936;5.334;2023-05-19T08:34:22;17.20;76.70
25024;DHT22;13033;50.936;5.334;2023-05-19T08:36:48;17.30;1.00
25024;DHT22;13033;50.936;5.334;2023-05-19T08:39:14;17.50;1.00
25024;DHT22;13033;50.936;5.334;2023-05-19T08:41:41;17.60;1.00
25024;DHT22;13033;50.936;5.334;2023-05-19T08:44:07;17.70;1.00
25024;DHT22;13033;50.936;5.334;2023-05-19T08:46:33;17.80;99.90
25024;DHT22;13033;50.936;5.334;2023-05-19T08:49:04;17.90;99.90
25024;DHT22;13033;50.936;5.334;2023-05-19T08:54:40;17.60;99.90
25024;DHT22;13033;50.936;5.334;2023-05-19T08:57:08;17.70;99.90
25024;DHT22;13033;50.936;5.334;2023-05-19T08:59:35;17.80;99.90
25024;DHT22;13033;50.936;5.334;2023-05-19T09:02:03;17.90;99.90
25024;DHT22;13033;50.936;5.334;2023-05-19T09:04:29;17.90;95.80
25024;DHT22;13033;50.936;5.334;2023-05-19T09:06:56;18.10;86.60
25024;DHT22;13033;50.936;5.334;2023-05-19T09:09:23;18.50;56.40
25024;DHT22;13033;50.936;5.334;2023-05-19T09:11:48;18.50;25.40
25024;DHT22;13033;50.936;5.334;2023-05-19T09:14:14;18.50;27.10
25024;DHT22;13033;50.936;5.334;2023-05-19T09:16:40;18.40;8.50
25024;DHT22;13033;50.936;5.334;2023-05-19T09:19:12;18.40;1.00
25024;DHT22;13033;50.936;5.334;2023-05-19T09:21:39;18.30;1.00
25024;DHT22;13033;50.936;5.334;2023-05-19T09:24:06;18.00;1.00
25024;DHT22;13033;50.936;5.334;2023-05-19T09:26:36;17.60;1.00
25024;DHT22;13033;50.936;5.334;2023-05-19T09:29:13;17.80;1.00
25024;DHT22;13033;50.936;5.334;2023-05-19T09:31:50;18.20;1.00
25024;DHT22;13033;50.936;5.334;2023-05-19T09:34:16;18.40;3.10
25024;DHT22;13033;50.936;5.334;2023-05-19T09:36:42;18.40;8.80
25024;DHT22;13033;50.936;5.334;2023-05-19T09:39:15;18.40;1.00
25024;DHT22;13033;50.936;5.334;2023-05-19T09:41:41;18.60;1.00
25024;DHT22;13033;50.936;5.334;2023-05-19T09:44:26;18.70;1.00
25024;DHT22;13033;50.936;5.334;2023-05-19T09:46:56;18.80;1.00
25024;DHT22;13033;50.936;5.334;2023-05-19T09:49:23;18.80;1.00
25024;DHT22;13033;50.936;5.334;2023-05-19T09:52:01;18.90;1.00
25024;DHT22;13033;50.936;5.334;2023-05-19T09:54:29;18.90;1.00
25024;DHT22;13033;50.936;5.334;2023-05-19T09:59:23;18.90;1.00
25024;DHT22;13033;50.936;5.334;2023-05-19T10:01:57;18.60;1.00
25024;DHT22;13033;50.936;5.334;2023-05-19T10:04:24;18.60;1.00
25024;DHT22;13033;50.936;5.334;2023-05-19T10:06:52;18.70;1.00
25024;DHT22;13033;50.936;5.334;2023-05-19T10:09:21;18.80;1.00
25024;DHT22;13033;50.936;5.334;2023-05-19T10:11:53;18.80;1.00
25024;DHT22;13033;50.936;5.334;2023-05-19T10:14:26;18.70;1.00
25024;DHT22;13033;50.936;5.334;2023-05-19T10:16:54;18.80;1.00
25024;DHT22;13033;50.936;5.334;2023-05-19T10:19:21;18.80;1.00
25024;DHT22;13033;50.936;5.334;2023-05-19T10:21:47;19.10;1.00
25024;DHT22;13033;50.936;5.334;2023-05-19T10:24:13;19.30;1.00
25024;DHT22;13033;50.936;5.334;2023-05-19T10:26:41;19.50;1.00
25024;DHT22;13033;50.936;5.334;2023-05-19T10:29:10;19.60;1.00
25024;DHT22;13033;50.936;5.334;2023-05-19T10:31:38;19.30;1.00
25024;DHT22;13033;50.936;5.334;2023-05-19T10:37:12;19.10;1.00
25024;DHT22;13033;50.936;5.334;2023-05-19T10:39:42;19.10;1.00
25024;DHT22;13033;50.936;5.334;2023-05-19T10:42:50;19.20;1.00
25024;DHT22;13033;50.936;5.334;2023-05-19T10:45:23;19.30;1.00
25024;DHT22;13033;50.936;5.334;2023-05-19T10:47:51;19.30;1.00
25024;DHT22;13033;50.936;5.334;2023-05-19T10:50:17;19.50;1.00
25024;DHT22;13033;50.936;5.334;2023-05-19T10:52:42;19.70;1.00
25024;DHT22;13033;50.936;5.334;2023-05-19T10:55:11;19.60;1.00
25024;DHT22;13033;50.936;5.334;2023-05-19T10:58:02;19.60;1.00
25024;DHT22;13033;50.936;5.334;2023-05-19T11:00:30;19.60;1.00
25024;DHT22;13033;50.936;5.334;2023-05-19T11:03:15;19.30;1.00
25024;DHT22;13033;50.936;5.334;2023-05-19T11:05:47;19.30;1.00
25024;DHT22;13033;50.936;5.334;2023-05-19T11:08:33;19.50;1.00
25024;DHT22;13033;50.936;5.334;2023-05-19T11:11:15;19.70;1.00
25024;DHT22;13033;50.936;5.334;2023-05-19T11:13:54;19.90;1.00
25024;DHT22;13033;50.936;5.334;2023-05-19T11:16:33;19.90;1.00
25024;DHT22;13033;50.936;5.334;2023-05-19T11:18:59;20.20;1.00
25024;DHT22;13033;50.936;5.334;2023-05-19T11:21:41;20.30;1.00
25024;DHT22;13033;50.936;5.334;2023-05-19T11:24:38;20.40;1.00
25024;DHT22;13033;50.936;5.334;2023-05-19T11:27:19;20.20;1.00
25024;DHT22;13033;50.936;5.334;2023-05-19T11:29:45;20.10;1.00
25024;DHT22;13033;50.936;5.334;2023-05-19T11:32:13;20.40;1.00
25024;DHT22;13033;50.936;5.334;2023-05-19T11:34:39;21.00;1.00
25024;DHT22;13033;50.936;5.334;2023-05-19T11:37:05;20.80;1.00
25024;DHT22;13033;50.936;5.334;2023-05-19T11:39:32;21.00;1.00
25024;DHT22;13033;50.936;5.334;2023-05-19T11:41:57;21.10;1.00
25024;DHT22;13033;50.936;5.334;2023-05-19T11:44:23;20.60;1.00
25024;DHT22;13033;50.936;5.334;2023-05-19T11:46:49;20.80;1.00
25024;DHT22;13033;50.936;5.334;2023-05-19T11:49:15;20.90;1.00
25024;DHT22;13033;50.936;5.334;2023-05-19T11:51:44;21.00;1.00
25024;DHT22;13033;50.936;5.334;2023-05-19T11:54:11;21.20;1.00
25024;DHT22;13033;50.936;5.334;2023-05-19T11:56:40;21.30;1.00
25024;DHT22;13033;50.936;5.334;2023-05-19T11:59:07;21.20;1.00
25024;DHT22;13033;50.936;5.334;2023-05-19T12:01:33;21.10;1.00
25024;DHT22;13033;50.936;5.334;2023-05-19T12:03:59;21.10;1.00
25024;DHT22;13033;50.936;5.334;2023-05-19T12:06:26;21.20;1.00
25024;DHT22;13033;50.936;5.334;2023-05-19T12:08:53;21.00;1.00
25024;DHT22;13033;50.936;5.334;2023-05-19T12:11:20;21.20;1.00
25024;DHT22;13033;50.936;5.334;2023-05-19T12:13:46;21.30;1.00
25024;DHT22;13033;50.936;5.334;2023-05-19T12:16:12;21.50;1.00
25024;DHT22;13033;50.936;5.334;2023-05-19T12:18:38;21.40;1.00
25024;DHT22;13033;50.936;5.334;2023-05-19T12:21:05;21.20;1.00
25024;DHT22;13033;50.936;5.334;2023-05-19T12:23:31;21.20;1.00
25024;DHT22;13033;50.936;5.334;2023-05-19T12:25:58;21.20;1.00
25024;DHT22;13033;50.936;5.334;2023-05-19T12:28:25;21.50;1.00
25024;DHT22;13033;50.936;5.334;2023-05-19T12:30:51;21.60;1.00
25024;DHT22;13033;50.936;5.334;2023-05-19T12:33:18;21.50;1.00
25024;DHT22;13033;50.936;5.334;2023-05-19T12:35:44;21.30;1.00
25024;DHT22;13033;50.936;5.334;2023-05-19T12:38:10;21.50;1.00
25024;DHT22;13033;50.936;5.334;2023-05-19T12:40:36;21.80;1.00
25024;DHT22;13033;50.936;5.334;2023-05-19T12:43:03;22.10;1.00
25024;DHT22;13033;50.936;5.334;2023-05-19T12:45:33;22.20;1.00
25024;DHT22;13033;50.936;5.334;2023-05-19T12:48:02;22.00;1.00
25024;DHT22;13033;50.936;5.334;2023-05-19T12:50:29;21.80;1.00
25024;DHT22;13033;50.936;5.334;2023-05-19T12:52:55;21.80;1.00
25024;DHT22;13033;50.936;5.334;2023-05-19T12:55:23;21.80;1.00
25024;DHT22;13033;50.936;5.334;2023-05-19T12:57:50;21.90;1.00
25024;DHT22;13033;50.936;5.334;2023-05-19T13:00:20;22.20;1.00
25024;DHT22;13033;50.936;5.334;2023-05-19T13:03:03;22.40;1.00
25024;DHT22;13033;50.936;5.334;2023-05-19T13:05:37;22.80;1.00
25024;DHT22;13033;50.936;5.334;2023-05-19T13:08:08;22.80;1.00
25024;DHT22;13033;50.936;5.334;2023-05-19T13:10:35;22.30;1.00
25024;DHT22;13033;50.936;5.334;2023-05-19T13:13:01;21.60;1.00
25024;DHT22;13033;50.936;5.334;2023-05-19T13:15:28;21.70;1.00
25024;DHT22;13033;50.936;5.334;2023-05-19T13:17:56;21.80;1.00
25024;DHT22;13033;50.936;5.334;2023-05-19T13:20:22;21.80;1.00
25024;DHT22;13033;50.936;5.334;2023-05-19T13:22:48;21.70;1.00
25024;DHT22;13033;50.936;5.334;2023-05-19T13:25:14;21.90;1.00
25024;DHT22;13033;50.936;5.334;2023-05-19T13:27:40;22.30;1.00
25024;DHT22;13033;50.936;5.334;2023-05-19T13:30:07;22.40;1.00
25024;DHT22;13033;50.936;5.334;2023-05-19T13:32:33;22.40;1.00
25024;DHT22;13033;50.936;5.334;2023-05-19T13:34:59;22.50;1.00
25024;DHT22;13033;50.936;5.334;2023-05-19T13:37:25;22.50;1.00
25024;DHT22;13033;50.936;5.334;2023-05-19T13:39:51;22.50;1.00
25024;DHT22;13033;50.936;5.334;2023-05-19T13:42:17;23.00;1.00
25024;DHT22;13033;50.936;5.334;2023-05-19T13:44:44;23.70;1.00
25024;DHT22;13033;50.936;5.334;2023-05-19T13:47:10;24.10;99.90
25024;DHT22;13033;50.936;5.334;2023-05-19T13:49:36;23.90;99.90
25024;DHT22;13033;50.936;5.334;2023-05-19T13:52:01;23.90;99.90
25024;DHT22;13033;50.936;5.334;2023-05-19T13:54:27;24.20;99.90
25024;DHT22;13033;50.936;5.334;2023-05-19T13:56:53;25.20;99.90
25024;DHT22;13033;50.936;5.334;2023-05-19T13:59:18;25.60;99.90
25024;DHT22;13033;50.936;5.334;2023-05-19T14:01:46;26.10;99.90
25024;DHT22;13033;50.936;5.334;2023-05-19T14:04:12;25.90;99.90
25024;DHT22;13033;50.936;5.334;2023-05-19T14:06:38;25.90;99.90
25024;DHT22;13033;50.936;5.334;2023-05-19T14:09:04;25.80;99.90
25024;DHT22;13033;50.936;5.334;2023-05-19T14:11:31;26.50;99.90
25024;DHT22;13033;50.936;5.334;2023-05-19T14:13:56;26.10;99.90
25024;DHT22;13033;50.936;5.334;2023-05-19T14:16:22;25.40;99.90
25024;DHT22;13033;50.936;5.334;2023-05-19T14:18:51;25.20;99.90
25024;DHT22;13033;50.936;5.334;2023-05-19T14:21:17;25.80;99.90
25024;DHT22;13033;50.936;5.334;2023-05-19T14:23:43;26.10;99.90
25024;DHT22;13033;50.936;5.334;2023-05-19T14:26:09;26.00;99.90
25024;DHT22;13033;50.936;5.334;2023-05-19T14:28:34;26.00;99.90
25024;DHT22;13033;50.936;5.334;2023-05-19T14:31:00;26.40;99.90
25024;DHT22;13033;50.936;5.334;2023-05-19T14:33:26;26.80;99.90
25024;DHT22;13033;50.936;5.334;2023-05-19T14:35:51;27.00;99.90
25024;DHT22;13033;50.936;5.334;2023-05-19T14:38:17;26.80;99.90
25024;DHT22;13033;50.936;5.334;2023-05-19T14:40:43;26.90;99.90
25024;DHT22;13033;50.936;5.334;2023-05-19T14:43:09;27.60;99.90
25024;DHT22;13033;50.936;5.334;2023-05-19T14:45:37;28.30;99.90
25024;DHT22;13033;50.936;5.334;2023-05-19T14:48:03;28.10;99.90
25024;DHT22;13033;50.936;5.334;2023-05-19T14:50:28;28.20;99.90
25024;DHT22;13033;50.936;5.334;2023-05-19T14:52:54;28.60;99.90
25024;DHT22;13033;50.936;5.334;2023-05-19T14:55:20;29.10;99.90
25024;DHT22;13033;50.936;5.334;2023-05-19T14:57:46;29.30;99.90
25024;DHT22;13033;50.936;5.334;2023-05-19T15:00:12;28.60;99.90
25024;DHT22;13033;50.936;5.334;2023-05-19T15:02:38;28.60;99.90
25024;DHT22;13033;50.936;5.334;2023-05-19T15:05:03;28.80;99.90
25024;DHT22;13033;50.936;5.334;2023-05-19T15:07:29;29.20;99.90
25024;DHT22;13033;50.936;5.334;2023-05-19T15:09:55;30.30;99.90
25024;DHT22;13033;50.936;5.334;2023-05-19T15:12:21;30.20;99.90
25024;DHT22;13033;50.936;5.334;2023-05-19T15:14:46;29.50;99.90
25024;DHT22;13033;50.936;5.334;2023-05-19T15:17:12;29.60;99.90
25024;DHT22;13033;50.936;5.334;2023-05-19T15:19:38;28.90;99.90
25024;DHT22;13033;50.936;5.334;2023-05-19T15:22:06;28.70;99.90
25024;DHT22;13033;50.936;5.334;2023-05-19T15:24:32;29.80;99.90
25024;DHT22;13033;50.936;5.334;2023-05-19T15:26:57;30.80;99.90
25024;DHT22;13033;50.936;5.334;2023-05-19T15:29:23;29.80;99.90
25024;DHT22;13033;50.936;5.334;2023-05-19T15:31:49;29.20;99.90
25024;DHT22;13033;50.936;5.334;2023-05-19T15:34:16;28.90;99.90
25024;DHT22;13033;50.936;5.334;2023-05-19T15:36:42;29.20;99.90
25024;DHT22;13033;50.936;5.334;2023-05-19T15:39:07;29.30;99.90
25024;DHT22;13033;50.936;5.334;2023-05-19T15:41:34;29.40;99.90
25024;DHT22;13033;50.936;5.334;2023-05-19T15:44:00;29.30;99.90
25024;DHT22;13033;50.936;5.334;2023-05-19T15:46:27;29.00;99.90
25024;DHT22;13033;50.936;5.334;2023-05-19T15:48:53;29.30;99.90
25024;DHT22;13033;50.936;5.334;2023-05-19T15:51:18;30.00;99.90
25024;DHT22;13033;50.936;5.334;2023-05-19T15:53:44;30.50;99.90
25024;DHT22;13033;50.936;5.334;2023-05-19T15:56:10;30.70;99.90
25024;DHT22;13033;50.936;5.334;2023-05-19T15:58:35;30.90;99.90
25024;DHT22;13033;50.936;5.334;2023-05-19T16:01:01;30.80;99.90
25024;DHT22;13033;50.936;5.334;2023-05-19T16:03:27;30.10;99.90
25024;DHT22;13033;50.936;5.334;2023-05-19T16:05:54;29.90;99.90